Time;durP1;ratioP1;P1;durP2;ratioP2;P2;SDS_P1;SDS_P2;PMS_P1;PMS_P2;Temp;Humidity;BMP_temperature;BMP_pressure;BME280_temperature;BME280_humidity;BME280_pressure;Samples;Min_cycle;Max_cycle;Signal;HPM_P1;HPM_P2
2023/10/22 00:02:31;;;;;;;;;2.67;2.00;;;;;12.97;100.00;99921.38;5062435;28;45348;-75
2023/10/22 00:05:03;;;;;;;;;4.67;3.33;;;;;13.41;100.00;99986.41;5059893;28;45307;-75
2023/10/22 00:07:34;;;;;;;;;5.00;2.33;;;;;12.93;100.00;99922.53;5058054;28;46439;-74
2023/10/22 00:10:11;;;;;;;;;2.00;2.00;;;;;13.33;100.00;99994.06;5064093;27;45790;-74
2023/10/22 00:13:13;;;;;;;;;4.00;4.00;;;;;13.30;100.00;99983.66;5058216;28;45381;-75
2023/10/22 00:15:40;;;;;;;;;8.67;4.00;;;;;12.91;100.00;99916.50;5059247;28;45873;-74
2023/10/22 00:18:33;;;;;;;;;2.00;1.67;;;;;13.52;100.00;100026.31;5059587;28;45524;-74
2023/10/22 00:21:09;;;;;;;;;4.00;2.00;;;;;13.22;100.00;99984.19;5058126;28;45349;-74
2023/10/22 00:23:36;;;;;;;;;2.67;1.67;;;;;13.24;100.00;99986.78;5063555;28;45455;-74
2023/10/22 00:26:05;;;;;;;;;3.67;1.33;;;;;13.26;100.00;99998.97;5051172;28;45559;-75
2023/10/22 00:28:41;;;;;;;;;3.00;2.00;;;;;13.29;100.00;100011.19;5052042;28;45638;-75
2023/10/22 00:31:15;;;;;;;;;2.00;2.00;;;;;13.21;100.00;99984.34;5037642;28;45390;-75
2023/10/22 00:33:47;;;;;;;;;4.33;2.67;;;;;12.90;100.00;99937.81;5055532;28;45483;-75
2023/10/22 00:36:17;;;;;;;;;4.00;2.00;;;;;13.24;100.00;99989.41;5054434;28;45665;-74
2023/10/22 00:38:46;;;;;;;;;4.33;3.00;;;;;13.54;100.00;100066.94;5050256;28;46220;-75
2023/10/22 00:41:16;;;;;;;;;4.67;2.67;;;;;13.21;100.00;99994.94;5060957;28;45412;-75
2023/10/22 00:43:42;;;;;;;;;6.00;2.00;;;;;13.24;100.00;100006.22;5072941;28;45454;-76
2023/10/22 00:46:25;;;;;;;;;4.33;1.00;;;;;13.03;100.00;99981.97;5063483;28;45515;-75
2023/10/22 00:48:53;;;;;;;;;6.00;2.33;;;;;13.40;100.00;100038.69;5057699;28;45678;-75
2023/10/22 00:51:21;;;;;;;;;2.33;1.33;;;;;12.85;100.00;99959.41;5063757;28;45435;-75
2023/10/22 00:53:55;;;;;;;;;4.00;1.00;;;;;13.54;100.00;100073.09;5057360;28;45483;-75
2023/10/22 00:56:22;;;;;;;;;2.00;1.67;;;;;13.03;100.00;99983.78;5074172;28;45492;-75
2023/10/22 00:59:09;;;;;;;;;8.67;1.33;;;;;12.96;100.00;99986.00;5049403;28;45919;-75
2023/10/22 01:01:36;;;;;;;;;7.67;1.33;;;;;12.85;100.00;99961.19;5065797;28;45310;-74
2023/10/22 01:04:19;;;;;;;;;5.33;2.33;;;;;12.87;100.00;99984.00;5059102;28;45286;-75
2023/10/22 01:07:05;;;;;;;;;2.67;1.00;;;;;13.53;100.00;100082.03;5070088;27;45337;-74
2023/10/22 01:09:40;;;;;;;;;3.33;2.00;;;;;12.86;100.00;99961.06;5059204;28;46372;-74
2023/10/22 01:12:06;;;;;;;;;1.67;1.67;;;;;13.55;100.00;100096.03;5060040;28;45448;-74
2023/10/22 01:14:51;;;;;;;;;2.67;1.00;;;;;13.56;100.00;100099.53;5049897;28;45598;-75
2023/10/22 01:17:45;;;;;;;;;2.33;2.33;;;;;12.85;100.00;99974.47;5055935;28;45432;-75
2023/10/22 01:20:17;;;;;;;;;2.67;1.67;;;;;13.15;100.00;100041.38;5033852;28;47937;-75
2023/10/22 01:23:00;;;;;;;;;2.33;1.00;;;;;13.54;100.00;100112.97;5046887;28;45325;-75
2023/10/22 01:25:37;;;;;;;;;2.67;2.00;;;;;13.44;100.00;100109.25;5058558;28;45412;-75
2023/10/22 01:28:32;;;;;;;;;3.33;2.67;;;;;13.16;100.00;100043.06;5058795;28;45688;-74
2023/10/22 01:31:12;;;;;;;;;;;;;;;;;;;;;
2023/10/22 01:33:52;;;;;;;;;2.00;2.00;;;;;12.92;100.00;100010.25;5060799;28;73683;-77
2023/10/22 01:36:45;;;;;;;;;5.00;3.00;;;;;12.98;100.00;100045.16;5054946;28;45318;-75
2023/10/22 01:39:17;;;;;;;;;3.33;2.33;;;;;12.79;100.00;100004.94;5070143;27;45328;-77
2023/10/22 01:41:45;;;;;;;;;6.33;2.00;;;;;13.51;100.00;100115.78;5064200;27;46803;-76
2023/10/22 01:44:11;;;;;;;;;6.00;3.33;;;;;13.07;100.00;100060.44;5062113;28;45308;-75
2023/10/22 01:46:42;;;;;;;;;5.00;2.00;;;;;13.21;100.00;100080.78;5055868;28;45357;-76
2023/10/22 01:49:13;;;;;;;;;3.67;2.00;;;;;12.86;100.00;100013.31;5056484;28;45706;-74
2023/10/22 01:51:39;;;;;;;;;5.00;3.00;;;;;13.54;100.00;100120.06;5069589;28;45609;-75
2023/10/22 01:54:43;;;;;;;;;;;;;;;;;;;;;
2023/10/22 01:57:11;;;;;;;;;2.67;2.33;;;;;13.54;100.00;100149.28;5076663;27;69489;-76
2023/10/22 02:02:55;;;;;;;;;2.00;1.00;;;;;13.12;100.00;100078.72;5070246;28;45611;-75
2023/10/22 02:05:35;;;;;;;;;4.00;2.00;;;;;12.85;100.00;100027.53;5072383;28;45391;-76
2023/10/22 02:08:19;;;;;;;;;2.00;2.00;;;;;12.87;100.00;100031.78;5076487;28;45336;-75
2023/10/22 02:10:47;;;;;;;;;1.00;1.00;;;;;13.28;100.00;100086.50;5061796;28;45419;-76
2023/10/22 02:13:42;;;;;;;;;0.00;0.00;;;;;13.51;100.00;100142.38;5067224;28;45450;-76
2023/10/22 02:16:26;;;;;;;;;;;;;;;;;;;;;
2023/10/22 02:22:27;;;;;;;;;3.00;0.00;;;;;13.23;100.00;100120.47;5009435;28;45390;-76
2023/10/22 02:24:56;;;;;;;;;1.67;1.67;;;;;12.95;100.00;100076.38;5003053;28;46279;-76
2023/10/22 02:27:21;;;;;;;;;2.00;2.00;;;;;12.92;100.00;100069.47;5036410;28;45381;-76
2023/10/22 02:29:47;;;;;;;;;2.33;1.67;;;;;13.17;100.00;100102.31;5053891;28;45455;-76
2023/10/22 02:32:34;;;;;;;;;1.00;1.00;;;;;12.78;100.00;100061.59;5077735;28;46491;-78
2023/10/22 02:35:18;;;;;;;;;1.00;1.00;;;;;12.79;100.00;100068.63;5054104;28;47312;-78
2023/10/22 02:37:43;;;;;;;;;3.33;1.33;;;;;12.82;100.00;100075.50;5065739;27;45409;-77
2023/10/22 02:40:12;;;;;;;;;3.67;1.67;;;;;12.87;100.00;100060.13;5058863;28;45591;-76
2023/10/22 02:42:37;;;;;;;;;3.33;2.00;;;;;12.87;100.00;100070.72;5071021;28;45568;-77
2023/10/22 02:45:12;;;;;;;;;3.00;1.33;;;;;13.20;100.00;100123.34;5067634;28;45512;-77
2023/10/22 02:47:53;;;;;;;;;4.67;2.00;;;;;13.09;100.00;100115.28;5074156;28;45599;-77
2023/10/22 02:50:38;;;;;;;;;3.33;2.00;;;;;13.20;100.00;100133.97;5060481;28;45549;-77
2023/10/22 02:53:33;;;;;;;;;1.67;1.33;;;;;13.32;100.00;100163.19;5052671;28;45373;-75
2023/10/22 02:56:02;;;;;;;;;4.67;1.00;;;;;13.26;100.00;100165.41;5073479;28;45395;-76
2023/10/22 02:58:31;;;;;;;;;7.00;3.00;;;;;13.10;100.00;100133.75;5075028;28;45606;-76
2023/10/22 03:01:18;;;;;;;;;4.00;2.00;;;;;13.13;100.00;100138.00;5055170;28;45689;-76
2023/10/22 03:04:14;;;;;;;;;2.67;1.00;;;;;12.85;100.00;100093.88;5053150;28;45396;-76
2023/10/22 03:06:42;;;;;;;;;2.67;1.33;;;;;13.02;100.00;100138.72;5079492;28;45315;-76
2023/10/22 03:09:07;;;;;;;;;4.33;3.00;;;;;12.97;100.00;100123.09;5062124;28;45305;-77
2023/10/22 03:11:33;;;;;;;;;3.33;1.67;;;;;12.76;100.00;100084.72;5075850;28;45750;-76
2023/10/22 03:13:58;;;;;;;;;5.00;2.00;;;;;12.79;100.00;100103.13;5055815;28;45553;-77
2023/10/22 03:16:24;;;;;;;;;3.00;2.00;;;;;13.14;100.00;100160.94;5052908;28;45561;-77
2023/10/22 03:18:57;;;;;;;;;3.33;0.67;;;;;13.04;100.00;100150.94;5069183;28;45359;-77
2023/10/22 03:21:49;;;;;;;;;4.33;1.00;;;;;13.33;100.00;100215.38;5055133;28;45511;-77
2023/10/22 03:24:17;;;;;;;;;0.00;0.00;;;;;13.01;100.00;100144.97;5067013;28;45238;-76
2023/10/22 03:26:46;;;;;;;;;3.33;1.00;;;;;12.76;100.00;100111.25;5048125;28;47173;-76
2023/10/22 03:29:15;;;;;;;;;4.00;2.00;;;;;12.72;100.00;100100.97;5061720;28;45368;-76
2023/10/22 03:31:40;;;;;;;;;4.67;2.00;;;;;12.95;100.00;100158.66;5070038;28;45336;-76
2023/10/22 03:34:29;;;;;;;;;3.00;2.00;;;;;13.09;100.00;100181.66;5049912;28;45502;-77
2023/10/22 03:37:04;;;;;;;;;4.00;1.00;;;;;13.40;100.00;100242.34;5059417;28;46397;-76
2023/10/22 03:39:42;;;;;;;;;2.67;1.00;;;;;12.88;100.00;100146.75;5061185;28;45414;-76
2023/10/22 03:42:08;;;;;;;;;5.00;1.67;;;;;13.27;100.00;100206.97;5055392;28;45369;-76
2023/10/22 03:44:39;;;;;;;;;2.67;1.00;;;;;12.75;100.00;100137.91;5052461;28;45511;-77
2023/10/22 03:47:12;;;;;;;;;3.00;1.00;;;;;13.38;100.00;100269.00;5058714;28;47145;-77
2023/10/22 03:53:12;;;;;;;;;2.67;1.00;;;;;12.79;100.00;100160.63;5069621;28;45429;-76
2023/10/22 03:55:37;;;;;;;;;2.33;1.00;;;;;12.92;100.00;100199.53;5044327;28;45295;-77
2023/10/22 03:58:29;;;;;;;;;1.00;1.00;;;;;13.36;100.00;100268.28;5060338;28;46229;-77
2023/10/22 04:01:16;;;;;;;;;1.67;0.67;;;;;12.75;100.00;100161.78;5051609;28;45599;-77
2023/10/22 04:04:25;;;;;;;;;0.33;0.33;;;;;12.99;100.00;100195.50;5077092;28;45435;-78
2023/10/22 04:06:53;;;;;;;;;2.33;1.00;;;;;12.68;100.00;100156.03;5073352;28;45379;-77
2023/10/22 04:09:21;;;;;;;;;2.00;1.00;;;;;12.96;100.00;100237.31;5059785;28;45564;-77
2023/10/22 04:11:46;;;;;;;;;1.67;1.00;;;;;12.72;100.00;100180.56;5074253;28;45304;-76
2023/10/22 04:14:23;;;;;;;;;4.00;0.00;;;;;12.95;100.00;100228.53;5053361;28;45380;-77
2023/10/22 04:16:52;;;;;;;;;2.67;1.33;;;;;12.82;100.00;100202.88;5066730;28;45438;-76
2023/10/22 04:19:17;;;;;;;;;1.67;1.00;;;;;13.35;100.00;100289.66;5051136;28;48052;-76
2023/10/22 04:22:11;;;;;;;;;1.00;1.00;;;;;13.19;100.00;100267.69;5068834;28;45457;-76
2023/10/22 04:24:39;;;;;;;;;1.33;1.00;;;;;12.70;100.00;100191.25;5030919;28;45893;-77
2023/10/22 04:27:11;;;;;;;;;3.67;0.67;;;;;12.69;100.00;100218.78;5059392;28;45355;-77
2023/10/22 04:29:46;;;;;;;;;1.00;1.00;;;;;12.64;100.00;100196.97;5043340;28;46262;-76
2023/10/22 04:32:20;;;;;;;;;2.33;1.00;;;;;12.69;100.00;100215.25;5072176;28;45423;-76
2023/10/22 04:34:49;;;;;;;;;1.00;1.00;;;;;12.71;100.00;100219.50;5043048;28;45469;-76
2023/10/22 04:37:23;;;;;;;;;2.33;1.00;;;;;13.10;100.00;100281.56;5053098;28;45377;-77
2023/10/22 04:39:49;;;;;;;;;3.00;1.33;;;;;12.72;100.00;100223.88;5052809;28;47113;-77
2023/10/22 04:42:15;;;;;;;;;4.00;0.33;;;;;13.04;100.00;100288.97;5072643;28;45443;-77
2023/10/22 04:44:56;;;;;;;;;2.67;1.00;;;;;12.93;100.00;100250.78;5057176;28;45404;-76
2023/10/22 04:47:39;;;;;;;;;2.00;2.00;;;;;12.65;100.00;100219.91;5065114;28;45444;-77
2023/10/22 04:50:30;;;;;;;;;1.33;1.33;;;;;13.03;100.00;100289.06;5058606;28;46565;-77
2023/10/22 04:52:57;;;;;;;;;1.00;1.00;;;;;13.12;100.00;100291.13;5063804;28;45657;-76
2023/10/22 04:55:23;;;;;;;;;1.33;1.00;;;;;12.92;100.00;100287.13;5082023;27;46148;-76
2023/10/22 04:57:48;;;;;;;;;2.00;1.00;;;;;12.70;100.00;100256.75;5067443;28;45622;-77
2023/10/22 05:00:17;;;;;;;;;1.67;1.00;;;;;13.29;100.00;100343.13;5050333;28;45467;-77
2023/10/22 05:02:45;;;;;;;;;2.33;1.00;;;;;12.63;100.00;100258.94;5078526;28;45514;-77
2023/10/22 05:05:14;;;;;;;;;3.00;1.67;;;;;12.90;100.00;100309.38;5059897;28;45351;-77
2023/10/22 05:07:45;;;;;;;;;1.00;1.00;;;;;12.70;100.00;100254.09;5048123;28;45606;-76
2023/10/22 05:10:36;;;;;;;;;1.33;1.00;;;;;13.05;100.00;100322.50;5070270;28;45432;-76
2023/10/22 05:13:22;;;;;;;;;3.33;2.00;;;;;12.60;100.00;100263.63;5066392;28;45482;-76
2023/10/22 05:15:54;;;;;;;;;2.00;2.00;;;;;12.65;100.00;100265.00;5056897;28;46820;-77
2023/10/22 05:18:26;;;;;;;;;1.00;1.00;;;;;12.65;100.00;100272.13;5067690;28;45336;-76
2023/10/22 05:21:12;;;;;;;;;1.67;1.67;;;;;13.31;100.00;100392.56;5071372;28;46348;-77
2023/10/22 05:23:37;;;;;;;;;3.67;1.00;;;;;12.85;100.00;100338.03;5068931;28;45257;-77
2023/10/22 05:26:15;;;;;;;;;5.00;2.00;;;;;13.35;100.00;100430.41;5086604;27;45715;-76
2023/10/22 05:28:45;;;;;;;;;4.00;1.67;;;;;12.99;100.00;100328.22;5053922;28;45404;-77
2023/10/22 05:31:23;;;;;;;;;3.00;1.00;;;;;12.65;100.00;100307.47;5055620;28;46246;-76
2023/10/22 05:33:51;;;;;;;;;1.00;1.00;;;;;13.02;100.00;100367.84;5070124;28;45514;-75
2023/10/22 05:36:21;;;;;;;;;2.00;1.00;;;;;12.78;100.00;100326.97;5050465;28;45484;-76
2023/10/22 05:38:57;;;;;;;;;4.00;1.00;;;;;12.69;100.00;100300.16;5070898;27;45528;-76
2023/10/22 05:41:45;;;;;;;;;2.67;1.00;;;;;12.71;100.00;100304.41;5053281;28;45482;-76
2023/10/22 05:44:12;;;;;;;;;2.67;0.00;;;;;13.39;100.00;100416.81;5077773;28;45548;-76
2023/10/22 05:46:41;;;;;;;;;3.00;1.00;;;;;12.82;100.00;100314.34;5054743;28;45463;-76
2023/10/22 05:49:14;;;;;;;;;2.00;1.33;;;;;13.01;100.00;100362.66;5059582;28;45387;-76
2023/10/22 05:51:42;;;;;;;;;4.00;1.00;;;;;12.65;100.00;100302.16;5073169;28;45560;-77
2023/10/22 05:54:08;;;;;;;;;1.00;1.00;;;;;13.03;100.00;100381.97;5071466;28;45211;-76
2023/10/22 05:56:51;;;;;;;;;3.67;1.67;;;;;13.18;100.00;100396.13;4994430;28;45581;-76
2023/10/22 05:59:36;;;;;;;;;5.00;1.00;;;;;13.44;100.00;100453.72;5049660;28;45773;-76
2023/10/22 06:02:19;;;;;;;;;2.67;1.00;;;;;13.17;100.00;100397.06;5069071;28;45435;-76
2023/10/22 06:04:52;;;;;;;;;4.67;2.00;;;;;12.74;100.00;100344.03;5079257;28;45286;-76
2023/10/22 06:07:26;;;;;;;;;3.33;1.00;;;;;12.76;100.00;100354.56;5062558;28;45286;-76
2023/10/22 06:09:51;;;;;;;;;3.00;2.67;;;;;12.79;100.00;100359.66;5066108;28;45385;-76
2023/10/22 06:12:26;;;;;;;;;1.67;1.67;;;;;12.79;100.00;100349.91;5064638;28;45823;-76
2023/10/22 06:14:51;;;;;;;;;3.00;1.00;;;;;12.80;100.00;100351.59;5062165;28;45411;-76
2023/10/22 06:17:22;;;;;;;;;3.33;2.00;;;;;12.77;100.00;100366.84;5093543;27;45410;-76
2023/10/22 06:19:54;;;;;;;;;2.33;1.00;;;;;12.89;100.00;100403.25;5053384;28;45603;-75
2023/10/22 06:22:21;;;;;;;;;2.00;0.33;;;;;13.05;100.00;100404.81;5071519;28;45490;-76
2023/10/22 06:25:46;;;;;;;;;;;;;;;;;;;;;
2023/10/22 06:31:26;;;;;;;;;;;;;;;;;;;;;
2023/10/22 06:34:34;;;;;;;;;4.33;1.33;;;;;13.47;100.00;100496.03;5065994;28;75236;-77
2023/10/22 06:37:11;;;;;;;;;;;;;;;;;;;;;
2023/10/22 06:39:39;;;;;;;;;3.00;1.33;;;;;12.99;100.00;100413.16;5063270;28;66698;-77
2023/10/22 06:42:05;;;;;;;;;4.33;0.33;;;;;12.83;100.00;100385.88;5060185;28;45336;-78
2023/10/22 06:45:29;;;;;;;;;2.00;1.00;;;;;13.05;100.00;100433.19;5061271;28;47060;-78
2023/10/22 06:48:08;;;;;;;;;2.33;1.00;;;;;12.86;100.00;100414.88;5071681;28;45471;-78
2023/10/22 06:51:19;;;;;;;;;;;;;;;;;;;;;
2023/10/22 06:54:06;;;;;;;;;3.00;0.00;;;;;13.03;100.00;100451.00;5058793;28;72741;-77
2023/10/22 06:56:36;;;;;;;;;2.33;2.00;;;;;12.94;100.00;100420.59;5055312;28;45433;-78
2023/10/22 07:01:59;;;;;;;;;0.67;0.67;;;;;13.58;100.00;100555.50;5041008;28;45313;-78
2023/10/22 07:04:25;;;;;;;;;2.00;1.00;;;;;13.35;100.00;100491.50;5060439;28;45593;-78
2023/10/22 07:07:44;;;;;;;;;;;;;;;;;;;;;
2023/10/22 07:10:14;;;;;;;;;2.33;1.67;;;;;13.03;100.00;100454.50;5043622;28;72809;-78
2023/10/22 07:12:46;;;;;;;;;0.00;0.00;;;;;13.19;100.00;100490.75;5058834;28;45350;-78
2023/10/22 07:15:12;;;;;;;;;0.00;0.00;;;;;13.27;100.00;100496.44;5068537;28;45440;-78
2023/10/22 07:17:52;;;;;;;;;4.00;1.00;;;;;12.97;100.00;100454.91;5073627;28;45670;-78
2023/10/22 07:20:27;;;;;;;;;1.00;1.00;;;;;13.39;100.00;100525.72;5051344;28;45535;-77
2023/10/22 07:22:58;;;;;;;;;2.67;1.00;;;;;13.70;100.00;100588.44;5068350;28;45504;-78
2023/10/22 07:25:39;;;;;;;;;2.00;1.00;;;;;13.70;100.00;100580.47;5069846;28;45320;-77
2023/10/22 07:28:15;;;;;;;;;3.33;1.00;;;;;13.65;100.00;100566.59;5074109;28;46347;-77
2023/10/22 07:30:56;;;;;;;;;2.00;0.00;;;;;13.72;100.00;100589.16;5061617;28;46150;-78
2023/10/22 07:33:22;;;;;;;;;0.00;0.00;;;;;13.25;100.00;100539.00;5057769;28;45413;-78
2023/10/22 07:35:58;;;;;;;;;1.67;1.00;;;;;13.66;100.00;100605.50;5052606;28;45523;-77
2023/10/22 07:38:32;;;;;;;;;1.00;1.00;;;;;13.07;100.00;100481.72;5053251;27;48261;-77
2023/10/22 07:41:36;;;;;;;;;0.67;0.00;;;;;13.68;100.00;100602.78;5072412;28;45342;-78
2023/10/22 07:47:23;;;;;;;;;;;;;;;;;;;;;
2023/10/22 07:49:52;;;;;;;;;1.00;1.00;;;;;13.59;100.00;100609.50;5064915;28;73775;-77
2023/10/22 07:52:18;;;;;;;;;1.00;1.00;;;;;13.46;100.00;100580.19;5047459;28;45492;-77
2023/10/22 07:54:56;;;;;;;;;1.00;1.00;;;;;13.39;100.00;100589.47;5071230;28;45442;-77
2023/10/22 07:57:22;;;;;;;;;0.33;0.33;;;;;13.48;100.00;100612.00;5061242;28;45697;-77
2023/10/22 07:59:58;;;;;;;;;0.67;0.00;;;;;13.17;100.00;100551.94;5065982;28;45792;-77
2023/10/22 08:02:24;;;;;;;;;3.00;1.33;;;;;13.19;100.00;100565.09;5056184;28;45350;-77
2023/10/22 08:05:00;;;;;;;;;3.00;1.00;;;;;13.46;100.00;100614.72;5068536;28;45566;-77
2023/10/22 08:08:13;;;;;;;;;2.00;1.00;;;;;13.70;100.00;100638.94;5065434;28;45332;-78
2023/10/22 08:10:44;;;;;;;;;6.00;1.00;;;;;12.99;100.00;100521.16;5053504;28;46147;-76
2023/10/22 08:13:27;;;;;;;;;2.00;2.00;;;;;13.73;100.00;100672.44;5053981;28;45647;-76
2023/10/22 08:16:31;;;;;;;;;6.33;3.00;;;;;13.07;100.00;100543.66;5050858;28;45337;-77
2023/10/22 08:19:10;;;;;;;;;2.00;1.00;;;;;13.23;100.00;100556.00;5046772;28;45524;-77
2023/10/22 08:21:43;;;;;;;;;3.33;1.00;;;;;13.85;100.00;100647.72;5067034;28;46967;-77
2023/10/22 08:24:50;;;;;;;;;3.00;2.00;;;;;13.67;100.00;100609.03;5053486;28;45430;-77
2023/10/22 08:27:29;;;;;;;;;;;;;;;;;;;;;
2023/10/22 08:30:38;;;;;;;;;3.00;2.00;;;;;13.67;100.00;100593.94;5074095;27;72283;-77
2023/10/22 08:36:38;;;;;;;;;1.33;1.00;;;;;14.18;100.00;100674.84;5061727;28;45676;-77
2023/10/22 08:39:20;;;;;;;;;2.00;0.33;;;;;13.68;100.00;100594.81;5059007;27;45491;-77
2023/10/22 08:42:13;;;;;;;;;;;;;;;;;;;;;
2023/10/22 08:44:48;;;;;;;;;0.67;0.67;;;;;14.26;100.00;100700.97;5056037;28;73025;-77
2023/10/22 08:47:34;;;;;;;;;2.00;1.67;;;;;13.74;100.00;100595.25;5032611;28;45481;-77
2023/10/22 08:50:11;;;;;;;;;;;;;;;;;;;;;
2023/10/22 08:52:49;;;;;;;;;1.33;1.00;;;;;13.84;100.00;100620.28;5047608;28;72135;-77
2023/10/22 08:55:36;;;;;;;;;3.00;1.67;;;;;13.98;100.00;100657.50;5055073;28;45582;-77
2023/10/22 08:58:25;;;;;;;;;4.67;2.33;;;;;13.95;100.00;100635.56;5048671;28;45578;-78
2023/10/22 09:04:42;;;;;;;;;4.00;2.67;;;;;14.10;100.00;100645.22;5044717;28;45594;-78
2023/10/22 09:07:22;;;;;;;;;1.00;0.00;;;;;14.13;100.00;100658.34;5032245;28;46063;-78
2023/10/22 09:10:09;;;;;;;;;1.00;1.00;;;;;14.07;100.00;100640.94;5038506;28;45355;-78
2023/10/22 09:12:34;;;;;;;;;2.00;2.00;;;;;14.08;100.00;100632.03;5052869;28;45468;-78
2023/10/22 09:15:11;;;;;;;;;1.00;1.00;;;;;14.25;100.00;100660.19;5041998;28;45568;-78
2023/10/22 09:22:02;;;;;;;;;;;;;;;;;;;;;
2023/10/22 09:25:28;;;;;;;;;;;;;;;;;;;;;
2023/10/22 09:28:27;;;;;;;;;;;;;;;;;;;;;
2023/10/22 09:31:24;;;;;;;;;2.33;2.33;;;;;15.41;100.00;100743.91;5052881;28;74949;-79
2023/10/22 09:34:46;;;;;;;;;;;;;;;;;;;;;
2023/10/22 09:37:43;;;;;;;;;3.00;3.00;;;;;14.93;100.00;100638.84;5017513;28;69187;-79
2023/10/22 09:47:12;;;;;;;;;;;;;;;;;;;;;
2023/10/22 09:50:51;;;;;;;;;;;;;;;;;;;;;
2023/10/22 09:54:08;;;;;;;;;4.00;1.00;;;;;15.11;100.00;100656.25;5022029;28;72683;-79
2023/10/22 09:57:02;;;;;;;;;;;;;;;;;;;;;
2023/10/22 09:59:51;;;;;;;;;;;;;;;;;;;;;
2023/10/22 10:02:43;;;;;;;;;;;;;;;;;;;;;
2023/10/22 10:05:52;;;;;;;;;;;;;;;;;;;;;
2023/10/22 10:09:02;;;;;;;;;3.00;1.33;;;;;16.23;100.00;100748.84;5082332;27;75048;-79
2023/10/22 10:15:50;;;;;;;;;1.00;1.00;;;;;16.36;96.62;100745.16;5016493;28;45531;-80
2023/10/22 10:18:55;;;;;;;;;;;;;;;;;;;;;
2023/10/22 10:22:02;;;;;;;;;2.00;1.00;;;;;16.31;93.33;100758.00;5075893;28;75379;-79
2023/10/22 10:25:04;;;;;;;;;2.00;0.00;;;;;15.72;92.13;100663.53;5075837;28;45315;-79
2023/10/22 10:28:05;;;;;;;;;;;;;;;;;;;;;
2023/10/22 10:34:39;;;;;;;;;;;;;;;;;;;;;
2023/10/22 10:37:35;;;;;;;;;1.00;1.00;;;;;15.70;90.47;100670.81;5067124;28;73523;-79
2023/10/22 10:40:11;;;;;;;;;2.67;1.00;;;;;15.84;94.23;100678.66;5040071;28;45355;-79
2023/10/22 10:42:59;;;;;;;;;;;;;;;;;;;;;
2023/10/22 10:46:37;;;;;;;;;3.33;1.00;;;;;16.49;91.29;100763.84;5008533;28;47482;-79
2023/10/22 10:53:29;;;;;;;;;1.33;0.67;;;;;16.03;86.11;100705.72;5031579;28;45341;-80
2023/10/22 10:56:09;;;;;;;;;0.00;0.00;;;;;15.93;84.23;100656.69;5018099;28;44752;-79
2023/10/22 10:58:54;;;;;;;;;;;;;;;;;;;;;
2023/10/22 11:01:23;;;;;;;;;2.00;0.00;;;;;16.40;80.89;100711.94;5012271;28;73031;-78
2023/10/22 11:04:37;;;;;;;;;3.00;1.33;;;;;16.86;81.03;100775.38;4993916;28;45490;-79
2023/10/22 11:07:51;;;;;;;;;2.00;1.00;;;;;16.96;84.59;100792.44;4986731;28;45529;-79
2023/10/22 11:11:06;;;;;;;;;1.00;1.00;;;;;17.03;80.67;100781.19;4985674;28;46903;-80
2023/10/22 11:14:30;;;;;;;;;;;;;;;;;;;;;
2023/10/22 11:17:37;;;;;;;;;;;;;;;;;;;;;
2023/10/22 11:24:42;;;;;;;;;;;;;;;;;;;;;
2023/10/22 11:30:59;;;;;;;;;0.67;0.67;;;;;16.59;77.59;100703.47;4969020;28;45487;-80
2023/10/22 11:33:42;;;;;;;;;;;;;;;;;;;;;
2023/10/22 11:46:29;;;;;;;;;;;;;;;;;;;;;
2023/10/22 11:49:23;;;;;;;;;;;;;;;;;;;;;
2023/10/22 11:52:36;;;;;;;;;;;;;;;;;;;;;
2023/10/22 11:55:51;;;;;;;;;0.67;0.67;;;;;17.05;77.32;100755.19;5062334;28;70164;-79
2023/10/22 11:59:23;;;;;;;;;2.67;1.00;;;;;16.78;71.89;100702.97;5030573;28;45455;-80
2023/10/22 12:02:45;;;;;;;;;;;;;;;;;;;;;
2023/10/22 12:08:46;;;;;;;;;2.00;1.00;;;;;16.66;73.03;100704.72;5008839;28;45736;-80
2023/10/22 12:11:56;;;;;;;;;;;;;;;;;;;;;
2023/10/22 12:14:48;;;;;;;;;1.67;1.00;;;;;17.03;73.75;100759.81;5035007;28;74101;-79
2023/10/22 12:21:42;;;;;;;;;2.00;1.33;;;;;17.30;71.51;100796.13;5012793;28;44896;-80
2023/10/22 12:25:07;;;;;;;;;;;;;;;;;;;;;
2023/10/22 12:28:02;;;;;;;;;1.67;1.00;;;;;17.55;73.62;100825.38;5030937;28;75840;-79
2023/10/22 12:30:28;;;;;;;;;0.00;0.00;;;;;16.99;76.28;100701.34;5069586;27;45297;-78
2023/10/22 12:33:34;;;;;;;;;1.00;1.00;;;;;17.00;72.83;100701.25;5071189;28;44813;-78
2023/10/22 12:39:48;;;;;;;;;;;;;;;;;;;;;
2023/10/22 12:47:09;;;;;;;;;4.33;0.00;;;;;16.89;70.51;100725.25;5057204;28;45298;-79
2023/10/22 12:50:18;;;;;;;;;;;;;;;;;;;;;
2023/10/22 12:56:56;;;;;;;;;;;;;;;;;;;;;
2023/10/22 13:00:14;;;;;;;;;3.67;1.00;;;;;16.93;68.24;100725.88;5074287;28;69632;-80
2023/10/22 13:06:39;;;;;;;;;1.00;1.00;;;;;17.56;69.93;100822.66;5024917;28;46296;-80
2023/10/22 13:09:47;;;;;;;;;0.00;0.00;;;;;17.38;70.42;100786.56;5015118;28;44787;-80
2023/10/22 13:12:57;;;;;;;;;;;;;;;;;;;;;
2023/10/22 13:16:09;;;;;;;;;;;;;;;;;;;;;
2023/10/22 13:18:39;;;;;;;;;2.00;0.00;;;;;17.37;68.18;100784.00;5028768;28;72773;-79
2023/10/22 13:28:23;;;;;;;;;;;;;;;;;;;;;
2023/10/22 13:34:35;;;;;;;;;1.00;1.00;;;;;17.18;68.77;100790.72;5087158;28;45370;-79
2023/10/22 13:37:21;;;;;;;;;;;;;;;;;;;;;
2023/10/22 13:40:39;;;;;;;;;2.00;0.00;;;;;17.45;67.72;100832.41;5062590;28;73930;-78
2023/10/22 13:44:03;;;;;;;;;1.33;0.00;;;;;17.44;68.17;100833.38;5057967;28;47579;-79
2023/10/22 13:47:03;;;;;;;;;3.33;1.00;;;;;17.06;69.00;100798.81;5048581;28;45352;-78
2023/10/22 13:50:08;;;;;;;;;;;;;;;;;;;;;
2023/10/22 13:53:10;;;;;;;;;2.00;2.00;;;;;16.94;66.15;100797.03;5039399;28;74191;-79
2023/10/22 13:55:51;;;;;;;;;2.00;1.00;;;;;16.58;66.72;100761.38;5033614;28;47736;-80
2023/10/22 13:59:22;;;;;;;;;1.00;1.00;;;;;17.13;66.22;100859.72;5074680;28;45261;-79
2023/10/22 14:05:20;;;;;;;;;1.00;1.00;;;;;16.66;70.06;100772.34;5069873;28;45476;-79
2023/10/22 14:08:07;;;;;;;;;1.00;1.00;;;;;17.17;69.32;100849.66;5057997;28;48257;-79
2023/10/22 14:10:45;;;;;;;;;1.00;1.00;;;;;16.92;67.90;100794.47;5064716;28;45421;-79
2023/10/22 14:13:37;;;;;;;;;2.00;0.00;;;;;16.58;68.67;100755.19;5063643;28;45298;-79
2023/10/22 14:16:06;;;;;;;;;1.67;1.00;;;;;16.91;67.67;100789.25;5062200;28;45517;-80
2023/10/22 14:18:33;;;;;;;;;1.67;0.00;;;;;16.84;68.60;100782.66;5055619;28;47608;-78
2023/10/22 14:21:09;;;;;;;;;1.33;0.00;;;;;16.79;68.07;100782.97;5051407;28;45533;-78
2023/10/22 14:24:24;;;;;;;;;1.00;1.00;;;;;16.58;70.29;100764.06;5064414;28;45530;-79
2023/10/22 14:27:02;;;;;;;;;;;;;;;;;;;;;
2023/10/22 14:29:52;;;;;;;;;1.67;1.33;;;;;16.60;68.63;100754.09;5078100;28;76975;-78
2023/10/22 14:32:21;;;;;;;;;0.00;0.00;;;;;16.59;69.81;100749.72;5065391;28;45444;-79
2023/10/22 14:35:23;;;;;;;;;1.00;1.00;;;;;17.17;71.92;100847.84;5062440;28;45590;-79
2023/10/22 14:41:57;;;;;;;;;2.00;0.67;;;;;16.57;70.50;100762.34;5060156;28;47168;-80
2023/10/22 14:44:43;;;;;;;;;2.67;1.00;;;;;17.11;71.40;100866.16;5015267;28;45531;-80
2023/10/22 14:47:30;;;;;;;;;;;;;;;;;;;;;
2023/10/22 14:53:33;;;;;;;;;3.00;0.67;;;;;16.51;69.93;100773.44;5017038;28;45548;-79
2023/10/22 14:56:13;;;;;;;;;2.00;0.00;;;;;16.98;70.32;100860.00;4996358;28;45439;-78
2023/10/22 14:59:00;;;;;;;;;;;;;;;;;;;;;
2023/10/22 15:02:16;;;;;;;;;;;;;;;;;;;;;
2023/10/22 15:04:59;;;;;;;;;;;;;;;;;;;;;
2023/10/22 15:07:53;;;;;;;;;2.00;0.00;;;;;16.38;69.46;100771.75;4996289;28;72998;-79
2023/10/22 15:10:58;;;;;;;;;1.00;1.00;;;;;16.37;71.89;100780.72;5016199;28;45886;-78
2023/10/22 15:13:48;;;;;;;;;3.67;1.00;;;;;16.25;72.71;100758.44;5005786;28;45512;-79
2023/10/22 15:16:43;;;;;;;;;2.00;1.00;;;;;16.50;68.74;100805.56;5045835;28;46393;-79
2023/10/22 15:22:55;;;;;;;;;1.00;1.00;;;;;16.17;74.34;100782.97;5063201;28;45594;-81
2023/10/22 15:28:38;;;;;;;;;2.00;0.00;;;;;16.09;76.73;100790.69;5027202;28;45425;-78
2023/10/22 15:31:04;;;;;;;;;3.00;1.00;;;;;16.64;75.81;100885.59;5028162;28;45482;-78
2023/10/22 15:34:18;;;;;;;;;1.67;1.00;;;;;16.53;77.37;100880.97;5061301;28;45596;-78
2023/10/22 15:40:57;;;;;;;;;;;;;;;;;;;;;
2023/10/22 15:44:15;;;;;;;;;;;;;;;;;;;;;
2023/10/22 15:46:41;;;;;;;;;3.00;1.33;;;;;15.71;79.31;100781.81;5066091;28;67781;-77
2023/10/22 15:49:07;;;;;;;;;0.33;0.00;;;;;15.86;79.50;100814.59;5078460;28;45323;-77